sensor_id;sensor_type;location;lat;lon;timestamp;P1;durP1;ratioP1;P2;durP2;ratioP2
25107;SDS011;13090;53.422;7.670;2024-01-07T00:00:52;8.52;;;5.05;;
25107;SDS011;13090;53.422;7.670;2024-01-07T00:06:32;9.30;;;5.03;;
25107;SDS011;13090;53.422;7.670;2024-01-07T00:12:13;8.68;;;4.63;;
25107;SDS011;13090;53.422;7.670;2024-01-07T00:17:55;7.45;;;4.88;;
25107;SDS011;13090;53.422;7.670;2024-01-07T00:23:36;9.10;;;4.90;;
25107;SDS011;13090;53.422;7.670;2024-01-07T00:29:17;7.43;;;4.10;;
25107;SDS011;13090;53.422;7.670;2024-01-07T00:34:58;10.68;;;5.45;;
25107;SDS011;13090;53.422;7.670;2024-01-07T00:40:39;6.15;;;3.58;;
25107;SDS011;13090;53.422;7.670;2024-01-07T00:46:19;8.60;;;4.53;;
25107;SDS011;13090;53.422;7.670;2024-01-07T00:52:01;7.70;;;3.72;;
25107;SDS011;13090;53.422;7.670;2024-01-07T00:57:42;8.48;;;3.90;;
25107;SDS011;13090;53.422;7.670;2024-01-07T01:03:22;6.28;;;3.50;;
25107;SDS011;13090;53.422;7.670;2024-01-07T01:09:03;5.93;;;3.50;;
25107;SDS011;13090;53.422;7.670;2024-01-07T01:14:43;4.57;;;3.47;;
25107;SDS011;13090;53.422;7.670;2024-01-07T01:20:24;6.82;;;3.90;;
25107;SDS011;13090;53.422;7.670;2024-01-07T01:26:06;6.53;;;3.85;;
25107;SDS011;13090;53.422;7.670;2024-01-07T01:31:46;7.97;;;3.28;;
25107;SDS011;13090;53.422;7.670;2024-01-07T01:37:27;8.13;;;3.63;;
25107;SDS011;13090;53.422;7.670;2024-01-07T01:43:08;7.65;;;3.47;;
25107;SDS011;13090;53.422;7.670;2024-01-07T01:48:49;8.57;;;4.10;;
25107;SDS011;13090;53.422;7.670;2024-01-07T01:54:29;6.15;;;3.63;;
25107;SDS011;13090;53.422;7.670;2024-01-07T02:00:12;6.80;;;3.55;;
25107;SDS011;13090;53.422;7.670;2024-01-07T02:05:53;5.05;;;2.92;;
25107;SDS011;13090;53.422;7.670;2024-01-07T02:11:33;6.70;;;3.20;;
25107;SDS011;13090;53.422;7.670;2024-01-07T02:17:15;5.88;;;3.17;;
25107;SDS011;13090;53.422;7.670;2024-01-07T02:22:56;5.18;;;3.60;;
25107;SDS011;13090;53.422;7.670;2024-01-07T02:28:37;6.45;;;3.05;;
25107;SDS011;13090;53.422;7.670;2024-01-07T02:34:18;5.78;;;3.10;;
25107;SDS011;13090;53.422;7.670;2024-01-07T02:39:58;6.30;;;3.03;;
25107;SDS011;13090;53.422;7.670;2024-01-07T02:45:42;5.35;;;3.00;;
25107;SDS011;13090;53.422;7.670;2024-01-07T02:51:22;8.93;;;3.45;;
25107;SDS011;13090;53.422;7.670;2024-01-07T02:57:02;6.18;;;2.65;;
25107;SDS011;13090;53.422;7.670;2024-01-07T03:02:44;3.30;;;2.00;;
25107;SDS011;13090;53.422;7.670;2024-01-07T03:08:25;3.63;;;2.45;;
25107;SDS011;13090;53.422;7.670;2024-01-07T03:14:05;3.67;;;1.90;;
25107;SDS011;13090;53.422;7.670;2024-01-07T03:19:47;2.97;;;2.05;;
25107;SDS011;13090;53.422;7.670;2024-01-07T03:25:27;4.22;;;2.08;;
25107;SDS011;13090;53.422;7.670;2024-01-07T03:31:08;3.17;;;1.95;;
25107;SDS011;13090;53.422;7.670;2024-01-07T03:36:52;2.08;;;1.70;;
25107;SDS011;13090;53.422;7.670;2024-01-07T03:42:32;3.55;;;2.28;;
25107;SDS011;13090;53.422;7.670;2024-01-07T03:48:13;3.67;;;2.05;;
25107;SDS011;13090;53.422;7.670;2024-01-07T03:53:54;3.22;;;2.17;;
25107;SDS011;13090;53.422;7.670;2024-01-07T03:59:34;6.82;;;2.30;;
25107;SDS011;13090;53.422;7.670;2024-01-07T04:05:14;4.20;;;2.05;;
25107;SDS011;13090;53.422;7.670;2024-01-07T04:10:56;2.25;;;1.45;;
25107;SDS011;13090;53.422;7.670;2024-01-07T04:16:36;6.43;;;2.05;;
25107;SDS011;13090;53.422;7.670;2024-01-07T04:22:16;4.45;;;2.20;;
25107;SDS011;13090;53.422;7.670;2024-01-07T04:27:58;2.60;;;1.80;;
25107;SDS011;13090;53.422;7.670;2024-01-07T04:33:39;2.13;;;1.70;;
25107;SDS011;13090;53.422;7.670;2024-01-07T04:39:20;2.15;;;1.50;;
25107;SDS011;13090;53.422;7.670;2024-01-07T04:45:02;3.55;;;1.50;;
25107;SDS011;13090;53.422;7.670;2024-01-07T04:50:42;4.10;;;1.73;;
25107;SDS011;13090;53.422;7.670;2024-01-07T04:56:23;2.38;;;1.52;;
25107;SDS011;13090;53.422;7.670;2024-01-07T05:02:04;3.58;;;1.58;;
25107;SDS011;13090;53.422;7.670;2024-01-07T05:07:44;3.25;;;1.50;;
25107;SDS011;13090;53.422;7.670;2024-01-07T05:13:25;4.72;;;1.40;;
25107;SDS011;13090;53.422;7.670;2024-01-07T05:19:07;1.55;;;1.35;;
25107;SDS011;13090;53.422;7.670;2024-01-07T05:24:48;2.65;;;1.50;;
25107;SDS011;13090;53.422;7.670;2024-01-07T05:30:28;1.83;;;1.38;;
25107;SDS011;13090;53.422;7.670;2024-01-07T05:36:10;3.50;;;1.40;;
25107;SDS011;13090;53.422;7.670;2024-01-07T05:41:50;2.40;;;1.80;;
25107;SDS011;13090;53.422;7.670;2024-01-07T05:47:32;3.63;;;1.67;;
25107;SDS011;13090;53.422;7.670;2024-01-07T05:53:14;2.60;;;1.83;;
25107;SDS011;13090;53.422;7.670;2024-01-07T05:58:55;3.35;;;1.75;;
25107;SDS011;13090;53.422;7.670;2024-01-07T06:04:36;4.47;;;1.80;;
25107;SDS011;13090;53.422;7.670;2024-01-07T06:10:18;3.65;;;1.50;;
25107;SDS011;13090;53.422;7.670;2024-01-07T06:15:58;3.65;;;1.63;;
25107;SDS011;13090;53.422;7.670;2024-01-07T06:21:39;4.28;;;1.58;;
25107;SDS011;13090;53.422;7.670;2024-01-07T06:27:20;2.63;;;1.85;;
25107;SDS011;13090;53.422;7.670;2024-01-07T06:33:00;5.30;;;1.60;;
25107;SDS011;13090;53.422;7.670;2024-01-07T06:38:40;2.40;;;1.50;;
25107;SDS011;13090;53.422;7.670;2024-01-07T06:44:22;2.70;;;1.85;;
25107;SDS011;13090;53.422;7.670;2024-01-07T06:50:03;4.15;;;1.70;;
25107;SDS011;13090;53.422;7.670;2024-01-07T06:55:44;4.75;;;1.90;;
25107;SDS011;13090;53.422;7.670;2024-01-07T07:01:26;2.58;;;1.55;;
25107;SDS011;13090;53.422;7.670;2024-01-07T07:07:06;4.45;;;1.38;;
25107;SDS011;13090;53.422;7.670;2024-01-07T07:12:46;2.50;;;1.30;;
25107;SDS011;13090;53.422;7.670;2024-01-07T07:18:28;4.13;;;1.70;;
25107;SDS011;13090;53.422;7.670;2024-01-07T07:24:09;2.78;;;1.70;;
25107;SDS011;13090;53.422;7.670;2024-01-07T07:29:49;2.63;;;1.80;;
25107;SDS011;13090;53.422;7.670;2024-01-07T07:35:31;4.70;;;1.85;;
25107;SDS011;13090;53.422;7.670;2024-01-07T07:41:11;4.43;;;1.80;;
25107;SDS011;13090;53.422;7.670;2024-01-07T07:46:51;3.05;;;1.90;;
25107;SDS011;13090;53.422;7.670;2024-01-07T07:52:33;5.20;;;2.20;;
25107;SDS011;13090;53.422;7.670;2024-01-07T07:58:14;3.03;;;1.77;;
25107;SDS011;13090;53.422;7.670;2024-01-07T08:03:54;5.28;;;1.90;;
25107;SDS011;13090;53.422;7.670;2024-01-07T08:09:36;4.00;;;1.52;;
25107;SDS011;13090;53.422;7.670;2024-01-07T08:15:17;2.45;;;1.80;;
25107;SDS011;13090;53.422;7.670;2024-01-07T08:20:57;4.45;;;1.60;;
25107;SDS011;13090;53.422;7.670;2024-01-07T08:26:39;3.28;;;1.50;;
25107;SDS011;13090;53.422;7.670;2024-01-07T08:32:20;2.40;;;1.50;;
25107;SDS011;13090;53.422;7.670;2024-01-07T08:38:00;4.10;;;2.05;;
25107;SDS011;13090;53.422;7.670;2024-01-07T08:43:41;4.72;;;2.10;;
25107;SDS011;13090;53.422;7.670;2024-01-07T08:49:22;6.40;;;2.90;;
25107;SDS011;13090;53.422;7.670;2024-01-07T08:55:02;3.67;;;2.30;;
25107;SDS011;13090;53.422;7.670;2024-01-07T09:00:44;3.38;;;2.33;;
25107;SDS011;13090;53.422;7.670;2024-01-07T09:06:25;4.43;;;2.15;;
25107;SDS011;13090;53.422;7.670;2024-01-07T09:12:06;4.60;;;1.95;;
25107;SDS011;13090;53.422;7.670;2024-01-07T09:17:47;6.13;;;2.90;;
25107;SDS011;13090;53.422;7.670;2024-01-07T09:23:28;4.43;;;2.78;;
25107;SDS011;13090;53.422;7.670;2024-01-07T09:29:08;5.72;;;3.67;;
25107;SDS011;13090;53.422;7.670;2024-01-07T09:34:50;7.22;;;3.65;;
25107;SDS011;13090;53.422;7.670;2024-01-07T09:40:31;6.05;;;3.80;;
25107;SDS011;13090;53.422;7.670;2024-01-07T09:46:11;6.53;;;3.50;;
25107;SDS011;13090;53.422;7.670;2024-01-07T09:51:55;5.85;;;3.58;;
25107;SDS011;13090;53.422;7.670;2024-01-07T09:57:39;6.30;;;3.65;;
25107;SDS011;13090;53.422;7.670;2024-01-07T10:03:21;6.40;;;2.83;;
25107;SDS011;13090;53.422;7.670;2024-01-07T10:09:03;5.75;;;3.28;;
25107;SDS011;13090;53.422;7.670;2024-01-07T10:14:45;10.35;;;3.30;;
25107;SDS011;13090;53.422;7.670;2024-01-07T10:20:26;7.53;;;3.72;;
25107;SDS011;13090;53.422;7.670;2024-01-07T10:26:08;8.25;;;3.95;;
25107;SDS011;13090;53.422;7.670;2024-01-07T10:32:02;6.47;;;3.28;;
25107;SDS011;13090;53.422;7.670;2024-01-07T10:37:43;8.70;;;3.40;;
25107;SDS011;13090;53.422;7.670;2024-01-07T10:43:26;6.40;;;2.80;;
25107;SDS011;13090;53.422;7.670;2024-01-07T10:49:11;8.75;;;3.42;;
25107;SDS011;13090;53.422;7.670;2024-01-07T10:55:02;5.47;;;3.42;;
25107;SDS011;13090;53.422;7.670;2024-01-07T11:00:49;7.45;;;2.88;;
25107;SDS011;13090;53.422;7.670;2024-01-07T11:06:33;4.28;;;3.20;;
25107;SDS011;13090;53.422;7.670;2024-01-07T11:12:19;5.60;;;3.50;;
25107;SDS011;13090;53.422;7.670;2024-01-07T11:18:02;6.95;;;3.50;;
25107;SDS011;13090;53.422;7.670;2024-01-07T11:23:43;4.75;;;2.28;;
25107;SDS011;13090;53.422;7.670;2024-01-07T11:29:24;7.20;;;2.70;;
25107;SDS011;13090;53.422;7.670;2024-01-07T11:35:06;8.02;;;2.85;;
25107;SDS011;13090;53.422;7.670;2024-01-07T11:40:47;4.65;;;2.38;;
25107;SDS011;13090;53.422;7.670;2024-01-07T11:46:29;5.65;;;2.53;;
25107;SDS011;13090;53.422;7.670;2024-01-07T11:52:12;5.28;;;2.22;;
25107;SDS011;13090;53.422;7.670;2024-01-07T11:57:52;4.78;;;2.50;;
25107;SDS011;13090;53.422;7.670;2024-01-07T12:03:34;4.45;;;2.53;;
25107;SDS011;13090;53.422;7.670;2024-01-07T12:09:16;4.53;;;2.70;;
25107;SDS011;13090;53.422;7.670;2024-01-07T12:14:57;6.10;;;2.30;;
25107;SDS011;13090;53.422;7.670;2024-01-07T12:20:37;5.88;;;2.50;;
25107;SDS011;13090;53.422;7.670;2024-01-07T12:26:19;2.85;;;2.22;;
25107;SDS011;13090;53.422;7.670;2024-01-07T12:32:00;4.70;;;2.30;;
25107;SDS011;13090;53.422;7.670;2024-01-07T12:37:41;4.28;;;2.20;;
25107;SDS011;13090;53.422;7.670;2024-01-07T12:43:24;5.55;;;2.20;;
25107;SDS011;13090;53.422;7.670;2024-01-07T12:49:04;3.10;;;2.00;;
25107;SDS011;13090;53.422;7.670;2024-01-07T12:54:45;4.53;;;1.95;;
25107;SDS011;13090;53.422;7.670;2024-01-07T13:00:26;4.10;;;2.05;;
25107;SDS011;13090;53.422;7.670;2024-01-07T13:06:07;3.72;;;2.00;;
25107;SDS011;13090;53.422;7.670;2024-01-07T13:11:48;5.90;;;2.65;;
25107;SDS011;13090;53.422;7.670;2024-01-07T13:17:30;3.42;;;2.15;;
25107;SDS011;13090;53.422;7.670;2024-01-07T13:23:10;5.90;;;2.67;;
25107;SDS011;13090;53.422;7.670;2024-01-07T13:28:51;3.30;;;2.45;;
25107;SDS011;13090;53.422;7.670;2024-01-07T13:34:32;3.58;;;1.85;;
25107;SDS011;13090;53.422;7.670;2024-01-07T13:40:13;4.90;;;2.42;;
25107;SDS011;13090;53.422;7.670;2024-01-07T13:45:54;3.55;;;2.20;;
25107;SDS011;13090;53.422;7.670;2024-01-07T13:51:37;3.28;;;2.00;;
25107;SDS011;13090;53.422;7.670;2024-01-07T13:57:17;3.47;;;2.05;;
25107;SDS011;13090;53.422;7.670;2024-01-07T14:02:57;3.53;;;2.00;;
25107;SDS011;13090;53.422;7.670;2024-01-07T14:08:40;3.63;;;2.38;;
25107;SDS011;13090;53.422;7.670;2024-01-07T14:14:20;4.07;;;2.00;;
25107;SDS011;13090;53.422;7.670;2024-01-07T14:20:00;4.30;;;2.08;;
25107;SDS011;13090;53.422;7.670;2024-01-07T14:25:42;4.65;;;2.40;;
25107;SDS011;13090;53.422;7.670;2024-01-07T14:31:22;5.72;;;2.50;;
25107;SDS011;13090;53.422;7.670;2024-01-07T14:37:03;3.88;;;2.40;;
25107;SDS011;13090;53.422;7.670;2024-01-07T14:42:45;5.45;;;2.50;;
25107;SDS011;13090;53.422;7.670;2024-01-07T14:48:26;5.40;;;2.88;;
25107;SDS011;13090;53.422;7.670;2024-01-07T14:54:06;6.03;;;2.97;;
25107;SDS011;13090;53.422;7.670;2024-01-07T14:59:48;4.78;;;2.65;;
25107;SDS011;13090;53.422;7.670;2024-01-07T15:05:28;8.30;;;2.60;;
25107;SDS011;13090;53.422;7.670;2024-01-07T15:11:08;3.47;;;2.40;;
25107;SDS011;13090;53.422;7.670;2024-01-07T15:16:51;3.67;;;2.55;;
25107;SDS011;13090;53.422;7.670;2024-01-07T15:22:31;3.85;;;2.60;;
25107;SDS011;13090;53.422;7.670;2024-01-07T15:28:11;4.65;;;2.53;;
25107;SDS011;13090;53.422;7.670;2024-01-07T15:33:53;7.90;;;2.30;;
25107;SDS011;13090;53.422;7.670;2024-01-07T15:39:33;4.25;;;2.78;;
25107;SDS011;13090;53.422;7.670;2024-01-07T15:45:14;4.13;;;2.72;;
25107;SDS011;13090;53.422;7.670;2024-01-07T15:50:56;5.22;;;2.80;;
25107;SDS011;13090;53.422;7.670;2024-01-07T15:56:36;4.63;;;3.00;;
25107;SDS011;13090;53.422;7.670;2024-01-07T16:02:17;5.25;;;3.00;;
25107;SDS011;13090;53.422;7.670;2024-01-07T16:07:59;3.92;;;2.40;;
25107;SDS011;13090;53.422;7.670;2024-01-07T16:13:39;3.97;;;2.85;;
25107;SDS011;13090;53.422;7.670;2024-01-07T16:19:19;6.78;;;3.50;;
25107;SDS011;13090;53.422;7.670;2024-01-07T16:25:01;4.80;;;3.15;;
25107;SDS011;13090;53.422;7.670;2024-01-07T16:30:42;5.03;;;3.35;;
25107;SDS011;13090;53.422;7.670;2024-01-07T16:36:23;4.53;;;3.08;;
25107;SDS011;13090;53.422;7.670;2024-01-07T16:42:05;4.40;;;2.95;;
25107;SDS011;13090;53.422;7.670;2024-01-07T16:47:45;6.88;;;3.20;;
25107;SDS011;13090;53.422;7.670;2024-01-07T16:53:26;5.55;;;3.30;;
25107;SDS011;13090;53.422;7.670;2024-01-07T16:59:07;6.00;;;3.30;;
25107;SDS011;13090;53.422;7.670;2024-01-07T17:04:48;5.68;;;3.28;;
25107;SDS011;13090;53.422;7.670;2024-01-07T17:10:29;5.18;;;3.42;;
25107;SDS011;13090;53.422;7.670;2024-01-07T17:16:10;4.60;;;2.50;;
25107;SDS011;13090;53.422;7.670;2024-01-07T17:21:51;5.15;;;2.70;;
25107;SDS011;13090;53.422;7.670;2024-01-07T17:27:31;5.22;;;3.03;;
25107;SDS011;13090;53.422;7.670;2024-01-07T17:33:13;3.63;;;2.55;;
25107;SDS011;13090;53.422;7.670;2024-01-07T17:38:54;5.65;;;3.30;;
25107;SDS011;13090;53.422;7.670;2024-01-07T17:44:35;4.22;;;2.35;;
25107;SDS011;13090;53.422;7.670;2024-01-07T17:50:23;6.63;;;2.58;;
25107;SDS011;13090;53.422;7.670;2024-01-07T17:56:04;4.22;;;2.92;;
25107;SDS011;13090;53.422;7.670;2024-01-07T18:01:48;10.00;;;3.00;;
25107;SDS011;13090;53.422;7.670;2024-01-07T18:07:30;3.80;;;2.90;;
25107;SDS011;13090;53.422;7.670;2024-01-07T18:13:10;5.63;;;2.60;;
25107;SDS011;13090;53.422;7.670;2024-01-07T18:18:51;6.32;;;3.13;;
25107;SDS011;13090;53.422;7.670;2024-01-07T18:24:33;7.03;;;3.90;;
25107;SDS011;13090;53.422;7.670;2024-01-07T18:30:13;5.03;;;3.70;;
25107;SDS011;13090;53.422;7.670;2024-01-07T18:35:54;6.03;;;3.60;;
25107;SDS011;13090;53.422;7.670;2024-01-07T18:41:36;7.43;;;3.83;;
25107;SDS011;13090;53.422;7.670;2024-01-07T18:47:16;6.28;;;4.45;;
25107;SDS011;13090;53.422;7.670;2024-01-07T18:52:57;5.15;;;3.53;;
25107;SDS011;13090;53.422;7.670;2024-01-07T18:58:39;5.38;;;4.30;;
25107;SDS011;13090;53.422;7.670;2024-01-07T19:04:19;4.72;;;3.33;;
25107;SDS011;13090;53.422;7.670;2024-01-07T19:10:00;5.20;;;3.33;;
25107;SDS011;13090;53.422;7.670;2024-01-07T19:15:41;4.97;;;3.28;;
25107;SDS011;13090;53.422;7.670;2024-01-07T19:21:21;5.13;;;3.50;;
25107;SDS011;13090;53.422;7.670;2024-01-07T19:27:02;5.53;;;3.28;;
25107;SDS011;13090;53.422;7.670;2024-01-07T19:32:44;4.80;;;3.53;;
25107;SDS011;13090;53.422;7.670;2024-01-07T19:38:25;4.70;;;3.22;;
25107;SDS011;13090;53.422;7.670;2024-01-07T19:44:07;4.50;;;3.20;;
25107;SDS011;13090;53.422;7.670;2024-01-07T19:49:49;7.57;;;3.58;;
25107;SDS011;13090;53.422;7.670;2024-01-07T19:55:29;4.60;;;3.15;;
25107;SDS011;13090;53.422;7.670;2024-01-07T20:01:10;5.35;;;3.58;;
25107;SDS011;13090;53.422;7.670;2024-01-07T20:06:52;5.22;;;3.70;;
25107;SDS011;13090;53.422;7.670;2024-01-07T20:12:33;7.03;;;3.30;;
25107;SDS011;13090;53.422;7.670;2024-01-07T20:18:14;6.13;;;3.63;;
25107;SDS011;13090;53.422;7.670;2024-01-07T20:23:56;5.80;;;3.17;;
25107;SDS011;13090;53.422;7.670;2024-01-07T20:29:37;6.47;;;3.65;;
25107;SDS011;13090;53.422;7.670;2024-01-07T20:35:18;8.73;;;4.00;;
25107;SDS011;13090;53.422;7.670;2024-01-07T20:41:01;6.28;;;3.50;;
25107;SDS011;13090;53.422;7.670;2024-01-07T20:46:42;7.72;;;3.90;;
25107;SDS011;13090;53.422;7.670;2024-01-07T20:52:22;8.70;;;3.83;;
25107;SDS011;13090;53.422;7.670;2024-01-07T20:58:04;5.60;;;3.65;;
25107;SDS011;13090;53.422;7.670;2024-01-07T21:03:44;5.97;;;3.60;;
25107;SDS011;13090;53.422;7.670;2024-01-07T21:09:24;6.75;;;4.13;;
25107;SDS011;13090;53.422;7.670;2024-01-07T21:15:07;6.03;;;3.33;;
25107;SDS011;13090;53.422;7.670;2024-01-07T21:20:49;5.72;;;3.80;;
25107;SDS011;13090;53.422;7.670;2024-01-07T21:26:29;7.25;;;4.18;;
25107;SDS011;13090;53.422;7.670;2024-01-07T21:32:11;6.97;;;4.40;;
25107;SDS011;13090;53.422;7.670;2024-01-07T21:37:52;6.53;;;4.03;;
25107;SDS011;13090;53.422;7.670;2024-01-07T21:43:32;8.77;;;4.30;;
25107;SDS011;13090;53.422;7.670;2024-01-07T21:49:14;6.93;;;4.88;;
25107;SDS011;13090;53.422;7.670;2024-01-07T21:54:55;8.68;;;4.90;;
25107;SDS011;13090;53.422;7.670;2024-01-07T22:00:35;6.72;;;4.25;;
25107;SDS011;13090;53.422;7.670;2024-01-07T22:06:17;7.25;;;4.57;;
25107;SDS011;13090;53.422;7.670;2024-01-07T22:11:58;7.43;;;4.40;;
25107;SDS011;13090;53.422;7.670;2024-01-07T22:17:38;8.30;;;4.47;;
25107;SDS011;13090;53.422;7.670;2024-01-07T22:23:20;7.22;;;4.18;;
25107;SDS011;13090;53.422;7.670;2024-01-07T22:29:00;7.57;;;4.20;;
25107;SDS011;13090;53.422;7.670;2024-01-07T22:34:41;6.40;;;4.32;;
25107;SDS011;13090;53.422;7.670;2024-01-07T22:40:23;8.40;;;4.30;;
25107;SDS011;13090;53.422;7.670;2024-01-07T22:46:04;6.93;;;3.85;;
25107;SDS011;13090;53.422;7.670;2024-01-07T22:51:44;8.73;;;4.68;;
25107;SDS011;13090;53.422;7.670;2024-01-07T22:57:27;6.70;;;4.07;;
25107;SDS011;13090;53.422;7.670;2024-01-07T23:03:07;7.18;;;4.38;;
25107;SDS011;13090;53.422;7.670;2024-01-07T23:08:48;9.30;;;5.20;;
25107;SDS011;13090;53.422;7.670;2024-01-07T23:14:29;7.28;;;4.82;;
25107;SDS011;13090;53.422;7.670;2024-01-07T23:20:10;7.55;;;4.30;;
25107;SDS011;13090;53.422;7.670;2024-01-07T23:25:51;10.43;;;4.82;;
25107;SDS011;13090;53.422;7.670;2024-01-07T23:31:33;7.18;;;4.38;;
25107;SDS011;13090;53.422;7.670;2024-01-07T23:37:14;7.38;;;4.10;;
25107;SDS011;13090;53.422;7.670;2024-01-07T23:42:54;6.57;;;4.10;;
25107;SDS011;13090;53.422;7.670;2024-01-07T23:48:36;6.47;;;4.15;;
25107;SDS011;13090;53.422;7.670;2024-01-07T23:54:16;6.90;;;4.00;;
25107;SDS011;13090;53.422;7.670;2024-01-07T23:59:57;6.75;;;4.32;;
